WetterOnline ( https://www.wetteronline.de )

Wetter aktuell Gstadt

Aktuelles Wetter: Chieming (553m)

6-stündlich | Neueste Meldungen
Ortszeit Temperatur Wetter
Sa, 24.07. 20:00 21.6° C leichter Regen
Sa, 24.07. 14:00 24.3° C wolkig
Sa, 24.07. 8:00 18.5° C leicht bewölkt
Sa, 24.07. 2:00 15.8° C wolkenlos
Fr, 23.07. 20:00 23.4° C wolkenlos
Fr, 23.07. 14:00 25.3° C wolkenlos
Fr, 23.07. 8:00 16.8° C wolkenlos
Fr, 23.07. 2:00 14.3° C wolkig
Ortszeit Temperatur Wetter
Sa, 24.07. 22:10 15.2° C leichter Regen
Sa, 24.07. 22:00 15.9° C leichter Regen
Sa, 24.07. 21:50 15.9° C leichter Regen
Sa, 24.07. 21:40 15.4° C bewölkt
Sa, 24.07. 21:30 15.3° C starker Regen
Sa, 24.07. 21:10 22.1° C bedeckt
Sa, 24.07. 21:00 21.9° C bedeckt
Sa, 24.07. 20:30 21.7° C leichter Regen
Sa, 24.07. 20:00 21.6° C leichter Regen
Sa, 24.07. 19:30 23.0° C bedeckt
Sa, 24.07. 19:00 24.4° C bedeckt
Ortszeit Relative Feuchte Sichtweite
Sa, 24.07. 20:00 82% 28 km
Sa, 24.07. 14:00 64% 35 km
Sa, 24.07. 8:00 77% 35 km
Sa, 24.07. 2:00 82% 30 km
Fr, 23.07. 20:00 55% 35 km
Fr, 23.07. 14:00 48% 30 km
Fr, 23.07. 8:00 79% 50 km
Fr, 23.07. 2:00 88% 30 km
Ortszeit Relative Feuchte Sichtweite
Sa, 24.07. 22:10 96% -
Sa, 24.07. 22:00 84% 16 km
Sa, 24.07. 21:50 84% -
Sa, 24.07. 21:40 84% -
Sa, 24.07. 21:30 95% -
Sa, 24.07. 21:10 65% -
Sa, 24.07. 21:00 68% 35 km
Sa, 24.07. 20:30 81% 25 km
Sa, 24.07. 20:00 82% 28 km
Sa, 24.07. 19:30 73% 30 km
Sa, 24.07. 19:00 66% 35 km
Ortszeit Niederschlagsmenge Niederschlagsart
Sa, 24.07. 20:00 0.1 l/m2 in 12 Std. Regen
Sa, 24.07. 14:00 0.1 l/m2 in 6 Std. Regen
Sa, 24.07. 8:00 0.0 l/m2 in 12 Std. -
Sa, 24.07. 2:00 0.0 l/m2 in 6 Std. -
Fr, 23.07. 20:00 0.0 l/m2 in 12 Std. -
Fr, 23.07. 14:00 0.0 l/m2 in 6 Std. -
Fr, 23.07. 8:00 0.0 l/m2 in 12 Std. -
Fr, 23.07. 2:00 0.0 l/m2 in 6 Std. -
Ortszeit Niederschlagsmenge Niederschlagsart
Sa, 24.07. 22:10 keine Meldung -
Sa, 24.07. 22:00 19.1 l/m2 in 1 Std. Regen, Niederschlag
Sa, 24.07. 21:50 keine Meldung -
Sa, 24.07. 21:40 keine Meldung -
Sa, 24.07. 21:30 keine Meldung -
Sa, 24.07. 21:10 keine Meldung -
Sa, 24.07. 21:00 0.1 l/m2 in 1 Std. Regen
Sa, 24.07. 20:30 0.1 l/m2 in 1 Std. -
Sa, 24.07. 20:00 0.1 l/m2 in 1 Std. Regen
Sa, 24.07. 19:30 0.0 l/m2 in 1 Std. -
Sa, 24.07. 19:00 0.0 l/m2 in 1 Std. -
Ortszeit Stärke Spitze Richtung
km/h Bft. km/h Grad Sektor
Sa, 24.07. 20:00 7 2 18 130° SO
Sa, 24.07. 14:00 9 2 26 280° W
Sa, 24.07. 8:00 7 2 11 70° O
Sa, 24.07. 2:00 7 2 20 80° O
Fr, 23.07. 20:00 14 3 22 70° O
Fr, 23.07. 14:00 9 2 20 10° N
Fr, 23.07. 8:00 4 1 11 140° SO
Fr, 23.07. 2:00 7 2 15 90° O
Ortszeit Stärke Spitze Richtung
km/h Bft. km/h Grad Sektor
Sa, 24.07. 22:10 18 3 - 190° S
Sa, 24.07. 22:00 24 4 89 310° NW
Sa, 24.07. 21:50 24 4 - 310° NW
Sa, 24.07. 21:40 40 6 - 290° W
Sa, 24.07. 21:30 52 7 - 270° W
Sa, 24.07. 21:10 13 3 - 250° W
Sa, 24.07. 21:00 11 2 18 50° NO
Sa, 24.07. 20:30 4 1 7 40° NO
Sa, 24.07. 20:00 7 2 18 130° SO
Sa, 24.07. 19:30 4 1 18 160° S
Sa, 24.07. 19:00 9 2 15 40° NO
Ortszeit Untergrenze Bedeckung Gattung
total tief tief mittel hoch
Sa, 24.07. 20:00 1500 m 8/8 1/8 - - -
Sa, 24.07. 14:00 6000 m 7/8 6/8 - - -
Sa, 24.07. 8:00 8100 m 3/8 0/8 - - -
Sa, 24.07. 2:00 - 0/8 0/8 - - -
Fr, 23.07. 20:00 - 0/8 0/8 - - -
Fr, 23.07. 14:00 - 0/8 0/8 - - -
Fr, 23.07. 8:00 - 0/8 0/8 - - -
Fr, 23.07. 2:00 6300 m 5/8 7/8 - - -
Ortszeit Bedeckungsgrad in Achtel und Wolkenuntergrenze
Sa, 24.07. 22:10 1(1800m) 8(2700m)
Sa, 24.07. 22:00 3(<30m) 6(2400m) 7(2700m)
Sa, 24.07. 21:50 3(<30m) 6(2400m) 7(2700m)
Sa, 24.07. 21:40 6(<30m) 7(1500m) 7(1800m)
Sa, 24.07. 21:30 5(<30m) 6(780m) 8(1800m)
Sa, 24.07. 21:10 8(1800m)
Sa, 24.07. 21:00 8(1800m) 8(3600m)
Sa, 24.07. 20:30 7(1470m) 8(1500m) 8(3600m)
Sa, 24.07. 20:00 1(1500m) 8(3300m)
Sa, 24.07. 19:30 2(3000m) 8(5400m) 8(6300m)
Sa, 24.07. 19:00 6(4200m) 8(6000m) 8(7200m)
Ortszeit Luftdruck NN (hPa) Tendenz (hPa in 3 Std.)
Sa, 24.07. 20:00 1009 - 0,4
Sa, 24.07. 14:00 1010 - 0,9
Sa, 24.07. 8:00 1011 - 0,4
Sa, 24.07. 2:00 1013 - 0,8
Fr, 23.07. 20:00 1012 - 0,7
Fr, 23.07. 14:00 1014 - 1,1
Fr, 23.07. 8:00 1017 0,0
Fr, 23.07. 2:00 1018 - 0,5
Ortszeit Luftdruck NN (hPa) Tendenz (hPa in 3 Std.)
Sa, 24.07. 22:10 1016 keine Meldung
Sa, 24.07. 22:00 1016 + 5,5
Sa, 24.07. 21:50 1016 keine Meldung
Sa, 24.07. 21:40 1015 keine Meldung
Sa, 24.07. 21:30 1015 keine Meldung
Sa, 24.07. 21:10 1011 keine Meldung
Sa, 24.07. 21:00 1010 + 0,4
Sa, 24.07. 20:30 1009 - 0,1
Sa, 24.07. 20:00 1009 - 0,4
Sa, 24.07. 19:30 1009 - 0,4
Sa, 24.07. 19:00 1008 - 0,8
Ortszeit Schneehöhe (cm)
Sa, 24.07. 20:00 -
Sa, 24.07. 14:00 -
Sa, 24.07. 8:00 -
Sa, 24.07. 2:00 -
Fr, 23.07. 20:00 -
Fr, 23.07. 14:00 -
Fr, 23.07. 8:00 -
Fr, 23.07. 2:00 -
Ortszeit Schneehöhe (cm)
Sa, 24.07. 22:10 -
Sa, 24.07. 22:00 -
Sa, 24.07. 21:50 -
Sa, 24.07. 21:40 -
Sa, 24.07. 21:30 -
Sa, 24.07. 21:10 -
Sa, 24.07. 21:00 -
Sa, 24.07. 20:30 -
Sa, 24.07. 20:00 -
Sa, 24.07. 19:30 -
Sa, 24.07. 19:00 -
Link zu dieser Seite / Seite empfehlen

Das Wetter in ...